createdAt,value
2023-03-01T00:01:06.230Z,1.58
2023-03-01T00:03:34.078Z,1.85
2023-03-01T00:06:01.441Z,2.00
2023-03-01T00:08:29.046Z,2.22
2023-03-01T00:11:08.049Z,2.05
2023-03-01T00:13:36.324Z,2.67
2023-03-01T00:16:17.188Z,1.33
2023-03-01T00:18:44.342Z,1.60
2023-03-01T00:21:11.549Z,4.82
2023-03-01T00:23:39.005Z,2.15
2023-03-01T00:26:12.171Z,1.60
2023-03-01T00:28:41.374Z,3.08
2023-03-01T00:31:10.986Z,0.70
2023-03-01T00:33:39.005Z,2.20
2023-03-01T00:36:06.954Z,3.70
2023-03-01T00:38:37.935Z,3.72
2023-03-01T00:41:06.880Z,1.45
2023-03-01T00:43:37.580Z,1.95
2023-03-01T00:46:10.796Z,2.40
2023-03-01T00:48:38.367Z,1.45
2023-03-01T00:51:07.618Z,1.63
2023-03-01T00:53:35.044Z,1.45
2023-03-01T00:56:02.627Z,0.75
2023-03-01T00:58:29.842Z,1.95
2023-03-01T01:00:56.736Z,1.10
2023-03-01T01:03:25.779Z,1.35
2023-03-01T01:05:53.484Z,2.50
2023-03-01T01:08:21.509Z,1.65
2023-03-01T01:10:48.472Z,1.25
2023-03-01T01:13:15.341Z,3.40
2023-03-01T01:15:42.554Z,1.13
2023-03-01T01:18:09.487Z,2.70
2023-03-01T01:20:37.932Z,2.92
2023-03-01T01:23:06.713Z,0.93
2023-03-01T01:25:36.180Z,1.10
2023-03-01T01:28:03.212Z,1.33
2023-03-01T01:30:30.114Z,3.40
2023-03-01T01:32:57.031Z,3.70
2023-03-01T01:35:23.934Z,2.28
2023-03-01T01:37:50.925Z,3.05
2023-03-01T01:40:17.891Z,1.13
2023-03-01T01:42:44.754Z,0.77
2023-03-01T01:45:34.630Z,3.17
2023-03-01T01:48:10.823Z,5.97
2023-03-01T01:50:41.681Z,2.92
2023-03-01T01:53:17.332Z,2.78
2023-03-01T01:55:49.439Z,1.17
2023-03-01T01:58:20.212Z,1.92
2023-03-01T02:00:48.845Z,2.90
2023-03-01T02:03:24.050Z,3.08
2023-03-01T02:06:05.669Z,1.70
2023-03-01T02:08:38.464Z,1.83
2023-03-01T02:11:06.596Z,0.98
2023-03-01T02:13:34.896Z,3.22
2023-03-01T02:16:14.211Z,1.02
2023-03-01T02:18:43.125Z,1.20
2023-03-01T02:21:22.414Z,0.95
2023-03-01T02:23:50.142Z,3.05
2023-03-01T02:26:26.884Z,4.70
2023-03-01T02:28:54.100Z,2.65
2023-03-01T02:31:41.056Z,1.45
2023-03-01T02:34:10.095Z,1.58
2023-03-01T02:36:40.557Z,1.30
2023-03-01T02:41:37.884Z,1.80
2023-03-01T02:44:06.572Z,3.42
2023-03-01T02:46:33.840Z,2.75
2023-03-01T02:49:01.202Z,3.72
2023-03-01T02:51:49.332Z,1.92
2023-03-01T02:54:32.438Z,1.65
2023-03-01T02:57:00.748Z,4.07
2023-03-01T02:59:34.714Z,4.03
2023-03-01T03:02:02.265Z,1.92
2023-03-01T03:04:29.283Z,2.00
2023-03-01T03:06:56.222Z,1.83
2023-03-01T03:09:23.431Z,1.40
2023-03-01T03:11:50.488Z,3.50
2023-03-01T03:14:18.322Z,6.82
2023-03-01T03:16:50.375Z,5.13
2023-03-01T03:19:18.736Z,2.10
2023-03-01T03:21:45.697Z,1.50
2023-03-01T03:24:12.692Z,1.73
2023-03-01T03:26:39.530Z,2.78
2023-03-01T03:29:06.418Z,1.40
2023-03-01T03:31:33.357Z,3.70
2023-03-01T03:34:00.280Z,4.05
2023-03-01T03:36:27.197Z,3.35
2023-03-01T03:38:54.023Z,4.95
2023-03-01T03:41:20.992Z,2.00
2023-03-01T03:43:48.016Z,2.28
2023-03-01T03:46:14.964Z,2.47
2023-03-01T03:48:44.794Z,6.38
2023-03-01T03:51:17.650Z,4.78
2023-03-01T03:53:45.512Z,4.03
2023-03-01T03:56:13.209Z,2.75
2023-03-01T03:58:40.134Z,2.72
2023-03-01T04:01:07.032Z,3.42
2023-03-01T04:03:34.305Z,3.97
2023-03-01T04:06:02.096Z,4.13
2023-03-01T04:08:29.520Z,3.47
2023-03-01T04:11:24.990Z,5.28
2023-03-01T04:13:53.499Z,11.27
2023-03-01T04:16:20.973Z,5.82
2023-03-01T04:18:48.943Z,3.50
2023-03-01T04:21:16.174Z,4.32
2023-03-01T04:23:43.854Z,5.97
2023-03-01T04:26:10.839Z,2.25
2023-03-01T04:28:46.039Z,9.45
2023-03-01T04:31:17.593Z,5.97
2023-03-01T04:33:46.897Z,5.75
2023-03-01T04:36:15.627Z,4.75
2023-03-01T04:38:43.377Z,5.63
2023-03-01T04:41:12.014Z,4.55
2023-03-01T04:43:39.208Z,2.35
2023-03-01T04:46:10.230Z,4.97
2023-03-01T04:48:38.404Z,2.50
2023-03-01T04:51:06.673Z,5.10
2023-03-01T04:53:34.631Z,6.32
2023-03-01T04:56:01.522Z,4.25
2023-03-01T04:58:29.453Z,5.05
2023-03-01T05:00:56.504Z,4.65
2023-03-01T05:03:23.833Z,6.35
2023-03-01T05:05:53.422Z,4.03
2023-03-01T05:08:21.727Z,2.67
2023-03-01T05:10:53.421Z,2.55
2023-03-01T05:13:21.994Z,1.60
2023-03-01T05:15:54.564Z,6.65
2023-03-01T05:18:21.808Z,4.88
2023-03-01T05:20:48.671Z,7.88
2023-03-01T05:23:15.504Z,2.92
2023-03-01T05:25:42.347Z,5.30
2023-03-01T05:28:13.322Z,1.65
2023-03-01T05:30:40.562Z,2.75
2023-03-01T05:33:14.327Z,6.60
2023-03-01T05:35:43.379Z,3.60
2023-03-01T05:38:14.510Z,13.02
2023-03-01T05:40:43.249Z,7.40
2023-03-01T05:43:10.632Z,8.23
2023-03-01T05:45:39.140Z,3.95
2023-03-01T05:48:07.431Z,4.95
2023-03-01T05:50:37.446Z,3.38
2023-03-01T05:53:12.989Z,4.72
2023-03-01T05:55:40.391Z,2.15
2023-03-01T05:58:10.754Z,4.80
2023-03-01T06:00:37.822Z,3.42
2023-03-01T06:03:04.850Z,3.00
2023-03-01T06:05:32.193Z,3.60
2023-03-01T06:08:02.941Z,2.47
2023-03-01T06:10:30.480Z,3.88
2023-03-01T06:12:58.120Z,4.57
2023-03-01T06:15:25.878Z,9.75
2023-03-01T06:17:57.150Z,7.32
2023-03-01T06:20:26.987Z,2.17
2023-03-01T06:22:53.892Z,2.80
2023-03-01T06:25:23.773Z,8.13
2023-03-01T06:27:50.882Z,5.13
2023-03-01T06:30:20.185Z,6.45
2023-03-01T06:32:47.011Z,4.93
2023-03-01T06:35:15.570Z,6.93
2023-03-01T06:37:42.748Z,8.40
2023-03-01T06:40:12.339Z,8.35
2023-03-01T06:42:41.114Z,11.05
2023-03-01T06:45:09.317Z,4.78
2023-03-01T06:47:36.238Z,3.35
2023-03-01T06:50:04.197Z,5.55
2023-03-01T06:52:31.106Z,7.03
2023-03-01T06:54:58.055Z,6.35
2023-03-01T06:57:24.986Z,4.47
2023-03-01T06:59:51.887Z,4.97
2023-03-01T07:02:18.853Z,5.50
2023-03-01T07:04:45.686Z,5.90
2023-03-01T07:07:13.018Z,4.20
2023-03-01T07:09:39.899Z,4.07
2023-03-01T07:12:07.241Z,1.30
2023-03-01T07:14:34.069Z,9.30
2023-03-01T07:17:00.916Z,4.68
2023-03-01T07:19:28.133Z,3.35
2023-03-01T07:21:56.462Z,4.68
2023-03-01T07:24:23.474Z,4.70
2023-03-01T07:26:51.649Z,2.10
2023-03-01T07:29:19.073Z,5.30
2023-03-01T07:31:46.042Z,2.83
2023-03-01T07:34:13.067Z,3.95
2023-03-01T07:36:40.705Z,4.68
2023-03-01T07:39:07.942Z,3.05
2023-03-01T07:41:34.825Z,5.78
2023-03-01T07:44:01.680Z,4.68
2023-03-01T07:46:28.627Z,7.18
2023-03-01T07:48:55.562Z,3.33
2023-03-01T07:51:22.553Z,5.38
2023-03-01T07:53:49.730Z,1.38
2023-03-01T07:56:20.604Z,3.42
2023-03-01T07:58:49.802Z,4.15
2023-03-01T08:01:19.831Z,2.58
2023-03-01T08:03:47.133Z,1.88
2023-03-01T08:06:15.358Z,7.07
2023-03-01T08:08:42.747Z,5.07
2023-03-01T08:11:12.706Z,4.93
2023-03-01T08:13:39.895Z,9.18
2023-03-01T08:16:13.011Z,2.25
2023-03-01T08:18:40.217Z,3.38
2023-03-01T08:21:12.775Z,3.70
2023-03-01T08:23:41.626Z,3.80
2023-03-01T08:26:17.992Z,7.25
2023-03-01T08:28:45.052Z,4.95
2023-03-01T08:31:27.155Z,1.75
2023-03-01T08:33:56.975Z,4.85
2023-03-01T08:36:25.995Z,2.30
2023-03-01T08:38:53.272Z,2.15
2023-03-01T08:41:20.814Z,2.58
2023-03-01T08:43:48.128Z,6.00
2023-03-01T08:46:15.125Z,2.13
2023-03-01T08:48:44.198Z,4.28
2023-03-01T08:51:14.119Z,1.10
2023-03-01T08:53:41.980Z,3.58
2023-03-01T08:56:09.988Z,0.73
2023-03-01T08:58:37.871Z,2.58
2023-03-01T09:01:12.567Z,2.35
2023-03-01T09:03:39.744Z,2.88
2023-03-01T09:06:08.580Z,4.53
2023-03-01T09:08:37.340Z,0.90
2023-03-01T09:11:05.362Z,1.65
2023-03-01T09:13:32.314Z,2.20
2023-03-01T09:16:00.386Z,1.70
2023-03-01T09:18:27.275Z,2.45
2023-03-01T09:20:55.991Z,2.97
2023-03-01T09:23:22.863Z,3.72
2023-03-01T09:25:49.717Z,3.65
2023-03-01T09:28:29.081Z,1.23
2023-03-01T09:31:00.495Z,1.80
2023-03-01T09:33:28.672Z,6.13
2023-03-01T09:36:16.239Z,1.23
2023-03-01T09:38:43.625Z,1.85
2023-03-01T09:41:31.350Z,4.75
2023-03-01T09:44:05.678Z,6.68
2023-03-01T09:46:38.731Z,2.42
2023-03-01T09:49:19.324Z,1.25
2023-03-01T09:51:55.426Z,2.83
2023-03-01T09:54:22.754Z,6.22
2023-03-01T09:56:58.480Z,10.77
2023-03-01T09:59:45.970Z,2.33
2023-03-01T10:02:25.600Z,7.55
2023-03-01T10:04:57.576Z,8.57
2023-03-01T10:07:52.267Z,2.38
2023-03-01T10:10:28.830Z,6.13
2023-03-01T10:12:57.371Z,7.47
2023-03-01T10:15:50.043Z,3.83
2023-03-01T10:18:22.949Z,14.20
2023-03-01T10:21:02.522Z,5.65
2023-03-01T10:23:32.952Z,3.22
2023-03-01T10:28:48.005Z,2.22
2023-03-01T10:31:19.740Z,7.55
2023-03-01T10:33:49.004Z,4.28
2023-03-01T10:36:16.056Z,7.68
2023-03-01T10:38:55.862Z,5.32
2023-03-01T10:41:24.732Z,8.15
2023-03-01T10:43:57.556Z,7.32
2023-03-01T10:46:27.607Z,5.15
2023-03-01T10:49:17.593Z,5.75
2023-03-01T10:51:47.375Z,2.83
2023-03-01T10:54:34.215Z,5.50
2023-03-01T10:57:03.373Z,1.88
2023-03-01T10:59:32.537Z,2.08
2023-03-01T11:02:25.422Z,4.53
2023-03-01T11:05:20.624Z,2.97
2023-03-01T11:07:57.474Z,3.25
2023-03-01T11:10:27.964Z,9.27
2023-03-01T11:15:32.955Z,7.00
2023-03-01T11:18:09.299Z,6.38
2023-03-01T11:20:41.267Z,6.22
2023-03-01T11:23:14.786Z,5.95
2023-03-01T11:25:47.040Z,12.65
2023-03-01T11:28:18.019Z,14.50
2023-03-01T11:31:08.652Z,6.53
2023-03-01T11:33:56.511Z,7.07
2023-03-01T11:36:42.539Z,5.80
2023-03-01T11:39:28.117Z,3.63
2023-03-01T11:42:18.280Z,7.22
2023-03-01T11:44:49.252Z,5.30
2023-03-01T11:47:34.805Z,9.23
2023-03-01T11:50:07.465Z,13.65
2023-03-01T11:52:49.583Z,7.80
2023-03-01T11:55:47.631Z,20.58
2023-03-01T11:58:33.057Z,3.30
2023-03-01T12:01:11.663Z,4.95
2023-03-01T12:03:56.407Z,4.85
2023-03-01T12:06:28.085Z,5.45
2023-03-01T12:09:14.643Z,8.82
2023-03-01T12:11:50.261Z,3.38
2023-03-01T12:14:38.631Z,6.75
2023-03-01T12:17:43.483Z,8.75
2023-03-01T12:20:35.830Z,13.07
2023-03-01T12:23:23.565Z,17.15
2023-03-01T12:26:20.597Z,6.68
2023-03-01T12:29:09.618Z,5.25
2023-03-01T12:32:01.376Z,2.45
2023-03-01T12:35:00.206Z,6.85
2023-03-01T12:37:35.674Z,7.43
2023-03-01T12:40:28.547Z,14.77
2023-03-01T12:43:13.862Z,4.10
2023-03-01T12:46:22.448Z,2.42
2023-03-01T12:49:28.889Z,12.20
2023-03-01T12:52:11.065Z,9.07
2023-03-01T12:54:38.304Z,22.30
2023-03-01T12:57:21.949Z,10.30
2023-03-01T13:00:10.765Z,4.13
2023-03-01T13:02:47.193Z,8.52
2023-03-01T13:05:24.378Z,8.70
2023-03-01T13:08:00.039Z,5.30
2023-03-01T13:10:41.876Z,3.80
2023-03-01T13:13:34.775Z,9.77
2023-03-01T13:16:22.366Z,7.30
2023-03-01T13:18:49.429Z,7.97
2023-03-01T13:21:31.298Z,6.95
2023-03-01T13:23:58.171Z,12.70
2023-03-01T13:26:25.047Z,4.97
2023-03-01T13:28:58.105Z,7.93
2023-03-01T13:31:28.038Z,15.88
2023-03-01T13:34:08.407Z,7.07
2023-03-01T13:36:37.005Z,7.22
2023-03-01T13:39:39.837Z,8.43
2023-03-01T13:42:38.378Z,18.27
2023-03-01T13:45:19.925Z,5.80
2023-03-01T13:47:50.336Z,6.60
2023-03-01T13:50:25.568Z,6.35
2023-03-01T13:53:05.826Z,6.18
2023-03-01T13:56:02.933Z,10.63
2023-03-01T13:58:35.432Z,5.93
2023-03-01T14:01:05.817Z,7.53
2023-03-01T14:06:21.035Z,23.40
2023-03-01T14:08:51.626Z,16.90
2023-03-01T14:11:56.276Z,23.85
2023-03-01T14:14:49.516Z,21.27
2023-03-01T14:17:38.124Z,48.08
2023-03-01T14:20:18.752Z,17.33
2023-03-01T14:22:46.817Z,19.33
2023-03-01T14:25:34.867Z,17.48
2023-03-01T14:28:05.912Z,15.43
2023-03-01T14:30:38.679Z,13.30
2023-03-01T14:33:20.457Z,25.73
2023-03-01T14:36:12.404Z,13.98
2023-03-01T14:38:40.722Z,14.98
2023-03-01T14:41:11.174Z,13.05
2023-03-01T14:46:06.744Z,21.83
2023-03-01T14:48:33.794Z,31.63
2023-03-01T14:51:01.702Z,22.05
2023-03-01T14:53:34.148Z,11.30
2023-03-01T14:56:04.945Z,18.40
2023-03-01T14:58:34.421Z,15.55
2023-03-01T15:01:05.034Z,13.10
2023-03-01T15:03:39.125Z,14.43
2023-03-01T15:06:08.497Z,19.88
2023-03-01T15:08:37.337Z,9.80
2023-03-01T15:11:25.813Z,14.65
2023-03-01T15:13:53.336Z,7.97
2023-03-01T15:16:28.829Z,14.55
2023-03-01T15:19:01.663Z,13.00
2023-03-01T15:21:35.095Z,11.30
2023-03-01T15:24:20.421Z,18.88
2023-03-01T15:27:03.008Z,22.20
2023-03-01T15:29:34.309Z,23.40
2023-03-01T15:32:04.863Z,23.90
2023-03-01T15:34:33.640Z,18.55
2023-03-01T15:37:03.115Z,25.08
2023-03-01T15:39:44.673Z,12.13
2023-03-01T15:42:34.661Z,14.80
2023-03-01T15:45:17.917Z,26.08
2023-03-01T15:47:49.994Z,17.55
2023-03-01T15:50:21.741Z,16.02
2023-03-01T15:52:49.706Z,13.75
2023-03-01T15:55:31.850Z,18.52
2023-03-01T15:58:19.181Z,17.83
2023-03-01T16:01:00.228Z,18.50
2023-03-01T16:03:28.333Z,12.80
2023-03-01T16:05:55.354Z,12.38
2023-03-01T16:08:22.202Z,24.13
2023-03-01T16:10:52.277Z,14.82
2023-03-01T16:13:20.312Z,9.65
2023-03-01T16:15:47.407Z,31.50
2023-03-01T16:18:14.372Z,12.32
2023-03-01T16:20:41.700Z,12.70
2023-03-01T16:23:11.872Z,11.25
2023-03-01T16:25:38.998Z,18.17
2023-03-01T16:28:10.014Z,19.08
2023-03-01T16:30:38.909Z,8.50
2023-03-01T16:33:24.245Z,10.23
2023-03-01T16:35:53.834Z,3.88
2023-03-01T16:38:20.718Z,13.80
2023-03-01T16:40:52.728Z,9.80
2023-03-01T16:43:19.772Z,12.57
2023-03-01T16:45:47.510Z,9.07
2023-03-01T16:48:15.141Z,6.82
2023-03-01T16:50:42.091Z,9.55
2023-03-01T16:53:09.200Z,11.50
2023-03-01T16:55:36.170Z,8.77
2023-03-01T16:58:05.229Z,6.80
2023-03-01T17:00:32.204Z,11.02
2023-03-01T17:02:59.197Z,15.55
2023-03-01T17:05:28.227Z,11.43
2023-03-01T17:07:56.897Z,4.45
2023-03-01T17:10:23.839Z,5.70
2023-03-01T17:12:51.214Z,12.07
2023-03-01T17:15:18.337Z,8.90
2023-03-01T17:17:45.381Z,8.90
2023-03-01T17:20:12.736Z,4.35
2023-03-01T17:22:39.652Z,1.23
2023-03-01T17:25:10.262Z,12.50
2023-03-01T17:27:38.975Z,7.75
2023-03-01T17:30:08.774Z,2.65
2023-03-01T17:32:36.181Z,2.10
2023-03-01T17:35:03.605Z,7.93
2023-03-01T17:37:30.448Z,13.45
2023-03-01T17:39:57.338Z,10.43
2023-03-01T17:42:24.167Z,8.73
2023-03-01T17:44:51.211Z,0.22
2023-03-01T17:47:18.325Z,8.60
2023-03-01T17:49:45.211Z,1.55
2023-03-01T17:52:12.064Z,5.47
2023-03-01T17:54:38.915Z,6.95
2023-03-01T17:57:05.829Z,4.15
2023-03-01T17:59:34.082Z,3.72
2023-03-01T18:02:01.793Z,6.47
2023-03-01T18:04:29.326Z,2.03
2023-03-01T18:06:56.229Z,2.67
2023-03-01T18:09:23.488Z,1.65
2023-03-01T18:11:50.347Z,0.98
2023-03-01T18:14:17.309Z,9.40
2023-03-01T18:16:44.168Z,6.50
2023-03-01T18:19:12.244Z,2.47
2023-03-01T18:21:39.174Z,3.17
2023-03-01T18:24:06.423Z,3.40
2023-03-01T18:26:33.700Z,5.70
2023-03-01T18:29:03.398Z,3.85
2023-03-01T18:31:33.435Z,0.60
2023-03-01T18:34:03.580Z,3.40
2023-03-01T18:36:35.992Z,5.03
2023-03-01T18:39:05.931Z,2.38
2023-03-01T18:41:33.358Z,6.70
2023-03-01T18:44:02.570Z,3.50
2023-03-01T18:46:29.748Z,3.08
2023-03-01T18:48:56.910Z,0.80
2023-03-01T18:51:28.052Z,5.95
2023-03-01T18:53:55.968Z,10.88
2023-03-01T18:56:22.825Z,9.63
2023-03-01T18:58:49.931Z,5.20
2023-03-01T19:01:19.691Z,1.90
2023-03-01T19:03:47.208Z,1.27
2023-03-01T19:06:14.936Z,1.55
2023-03-01T19:08:44.319Z,1.23
2023-03-01T19:11:12.864Z,1.77
2023-03-01T19:13:40.954Z,2.25
2023-03-01T19:16:16.823Z,1.35
2023-03-01T19:18:50.133Z,2.47
2023-03-01T19:21:19.481Z,0.88
2023-03-01T19:23:48.596Z,0.93
2023-03-01T19:26:19.206Z,0.63
2023-03-01T19:28:47.199Z,2.05
2023-03-01T19:31:17.254Z,3.50
2023-03-01T19:33:44.691Z,0.30
2023-03-01T19:36:13.302Z,2.65
2023-03-01T19:38:42.035Z,3.00
2023-03-01T19:41:16.889Z,2.45
2023-03-01T19:43:44.975Z,4.57
2023-03-01T19:46:13.534Z,3.92
2023-03-01T19:48:40.658Z,1.25
2023-03-01T19:51:08.793Z,2.25
2023-03-01T19:53:38.443Z,2.20
2023-03-01T19:56:06.109Z,1.05
2023-03-01T19:58:33.105Z,1.13
2023-03-01T20:01:00.918Z,4.97
2023-03-01T20:03:29.806Z,2.40
2023-03-01T20:05:56.804Z,1.48
2023-03-01T20:08:24.473Z,0.65
2023-03-01T20:10:52.047Z,6.18
2023-03-01T20:13:21.289Z,8.60
2023-03-01T20:15:48.399Z,3.60
2023-03-01T20:18:15.357Z,3.03
2023-03-01T20:20:42.454Z,3.53
2023-03-01T20:23:09.321Z,1.30
2023-03-01T20:25:36.216Z,4.97
2023-03-01T20:28:03.213Z,1.30
2023-03-01T20:30:30.328Z,3.30
2023-03-01T20:32:57.250Z,1.10
2023-03-01T20:35:24.192Z,0.88
2023-03-01T20:37:54.191Z,2.22
2023-03-01T20:40:26.797Z,1.25
2023-03-01T20:42:57.461Z,1.63
2023-03-01T20:45:28.018Z,2.05
2023-03-01T20:47:55.431Z,1.23
2023-03-01T20:50:22.352Z,3.05
2023-03-01T20:52:49.271Z,5.40
2023-03-01T20:55:16.250Z,1.05
2023-03-01T20:57:43.682Z,3.47
2023-03-01T21:00:11.126Z,3.13
2023-03-01T21:02:38.866Z,4.07
2023-03-01T21:05:06.627Z,2.78
2023-03-01T21:07:33.558Z,5.00
2023-03-01T21:10:00.545Z,1.85
2023-03-01T21:12:27.432Z,2.42
2023-03-01T21:14:54.284Z,6.00
2023-03-01T21:17:21.460Z,2.05
2023-03-01T21:19:49.788Z,1.25
2023-03-01T21:22:17.392Z,3.30
2023-03-01T21:24:44.896Z,2.67
2023-03-01T21:27:12.196Z,1.38
2023-03-01T21:29:41.598Z,6.93
2023-03-01T21:32:09.852Z,1.42
2023-03-01T21:34:37.992Z,4.38
2023-03-01T21:37:05.866Z,2.40
2023-03-01T21:39:33.811Z,3.65
2023-03-01T21:42:04.340Z,4.20
2023-03-01T21:46:59.210Z,3.00
2023-03-01T21:49:27.018Z,4.88
2023-03-01T21:51:54.024Z,2.10
2023-03-01T21:54:20.964Z,3.25
2023-03-01T21:56:48.555Z,2.28
2023-03-01T21:59:18.669Z,1.38
2023-03-01T22:01:46.091Z,1.25
2023-03-01T22:04:13.353Z,2.13
2023-03-01T22:06:42.690Z,1.55
2023-03-01T22:09:22.653Z,6.75
2023-03-01T22:11:54.014Z,1.52
2023-03-01T22:14:21.647Z,3.58
2023-03-01T22:16:51.498Z,1.83
2023-03-01T22:19:19.188Z,4.43
2023-03-01T22:21:49.805Z,1.95
2023-03-01T22:24:19.588Z,3.38
2023-03-01T22:26:48.052Z,3.80
2023-03-01T22:29:24.891Z,5.72
2023-03-01T22:31:52.657Z,5.35
2023-03-01T22:34:20.654Z,0.90
2023-03-01T22:36:47.826Z,1.50
2023-03-01T22:39:16.503Z,1.88
2023-03-01T22:41:45.945Z,3.03
2023-03-01T22:44:18.824Z,3.30
2023-03-01T22:46:46.384Z,1.58
2023-03-01T22:49:16.962Z,3.30
2023-03-01T22:51:44.691Z,3.42
2023-03-01T22:54:12.397Z,2.47
2023-03-01T22:56:39.889Z,3.47
2023-03-01T22:59:09.798Z,3.15
2023-03-01T23:01:39.254Z,3.40
2023-03-01T23:04:06.438Z,2.30
2023-03-01T23:06:33.845Z,1.52
2023-03-01T23:09:04.273Z,1.17
2023-03-01T23:11:31.323Z,5.60
2023-03-01T23:13:59.365Z,3.80
2023-03-01T23:16:26.715Z,8.38
2023-03-01T23:18:59.138Z,2.55
2023-03-01T23:21:26.759Z,3.38
2023-03-01T23:23:55.920Z,1.25
2023-03-01T23:26:26.949Z,2.20
2023-03-01T23:28:55.389Z,5.57
2023-03-01T23:31:22.607Z,6.63
2023-03-01T23:33:49.714Z,5.60
2023-03-01T23:36:22.066Z,1.88
2023-03-01T23:38:51.645Z,0.90
2023-03-01T23:41:23.253Z,5.83
2023-03-01T23:43:53.328Z,4.78
2023-03-01T23:46:23.031Z,1.55
2023-03-01T23:48:49.970Z,1.58
2023-03-01T23:51:17.845Z,0.50
2023-03-01T23:53:54.530Z,1.33
2023-03-01T23:56:30.372Z,2.97
2023-03-01T23:59:02.931Z,1.90
